Terminal Aerodrome Forecast
Issued by NWS Grand Junction, CO

Home | Current Version | Previous Version | Text Only | Print | Product List | Glossary On
Versions: 1 2 3 4 5 6 7 8 9 10 11 12 13 14 15 16 17
000
FTUS45 KGJT 222337
TAFGJT
TAF
KGJT 222337Z 2300/2324 VRB04KT P6SM SCT090
     FM230600 10006KT P6SM SCT250
     FM231500 13010KT P6SM FEW250
     FM231700 20006KT P6SM FEW250
     FM232000 26008KT P6SM FEW150
     FM232200 27012KT P6SM SCT100=

USA.gov is the U.S. government's official web portal to all federal, state and local government web resources and services.